ADDS METAR Data INFO
IDs: Format: Raw Decoded Include TAF

Data at: 1221 UTC 20 May 2018

METAR for:KTZR (Columbus/Bolton Fld, OH, US)
Text:KTZR 201145Z 35005KT 7SM BKN010 18/16 A3007
Temperature: 18.0°C ( 64°F)
Dewpoint: 16.0°C ( 61°F) [RH = 88%]
Pressure (altimeter):30.07 inches Hg (1018.4 mb)
Winds:from the N (350 degrees) at 6 MPH (5 knots; 2.6 m/s)
Visibility: 7 sm ( 11 km)
Ceiling:1000 feet AGL
Clouds: broken clouds at 1000 feet AGL